createdAt,value
2018-07-31T00:01:10.610Z,59.40
2018-07-31T00:06:11.274Z,59.40
2018-07-31T00:08:39.700Z,59.50
2018-07-31T00:11:08.276Z,59.40
2018-07-31T00:13:44.572Z,59.40
2018-07-31T00:23:55.345Z,59.20
2018-07-31T00:28:52.334Z,59.20
2018-07-31T00:31:36.799Z,59.30
2018-07-31T00:34:05.826Z,59.50
2018-07-31T00:39:02.331Z,61.00
2018-07-31T00:41:36.659Z,62.30
2018-07-31T00:44:05.046Z,62.30
2018-07-31T00:49:01.420Z,63.70
2018-07-31T00:51:29.852Z,64.40
2018-07-31T00:53:58.181Z,65.00
2018-07-31T00:56:26.646Z,65.10
2018-07-31T00:58:54.837Z,66.10
2018-07-31T01:03:55.403Z,67.10
2018-07-31T01:08:56.416Z,67.90
2018-07-31T01:11:24.919Z,68.10
2018-07-31T01:18:49.490Z,67.00
2018-07-31T01:26:16.250Z,64.50
2018-07-31T01:28:44.518Z,63.90
2018-07-31T01:31:20.188Z,63.40
2018-07-31T01:33:48.582Z,63.00
2018-07-31T01:36:16.854Z,62.70
2018-07-31T01:38:45.082Z,63.00
2018-07-31T01:43:41.780Z,63.00
2018-07-31T01:46:10.083Z,63.40
2018-07-31T01:48:38.362Z,64.10
2018-07-31T01:51:06.360Z,64.40
2018-07-31T01:56:02.970Z,65.30
2018-07-31T02:00:59.339Z,66.20
2018-07-31T02:03:27.665Z,67.10
2018-07-31T02:05:56.051Z,68.10
2018-07-31T02:08:24.657Z,68.80
2018-07-31T02:18:17.436Z,70.70
2018-07-31T02:20:45.823Z,71.30
2018-07-31T02:23:14.221Z,71.90
2018-07-31T02:30:43.310Z,72.80
2018-07-31T02:33:11.627Z,73.30
2018-07-31T02:35:39.903Z,73.40
2018-07-31T02:38:08.178Z,73.40
2018-07-31T02:40:36.615Z,73.70
2018-07-31T02:43:05.466Z,73.50
2018-07-31T02:45:35.015Z,73.80
2018-07-31T02:48:03.543Z,74.20
2018-07-31T02:50:32.143Z,74.70
2018-07-31T02:53:00.435Z,75.30
2018-07-31T02:55:29.884Z,75.40
2018-07-31T02:57:58.286Z,75.70
2018-07-31T03:00:26.556Z,75.80
2018-07-31T03:02:54.979Z,76.20
2018-07-31T03:05:25.625Z,76.60
2018-07-31T03:07:54.011Z,76.70
2018-07-31T03:10:22.508Z,77.10
2018-07-31T03:12:50.792Z,77.40
2018-07-31T03:15:19.335Z,77.70
2018-07-31T03:17:47.737Z,77.80
2018-07-31T03:20:16.117Z,78.00
2018-07-31T03:22:44.427Z,78.10
2018-07-31T03:25:12.691Z,78.50
2018-07-31T03:27:41.628Z,78.90
2018-07-31T03:32:38.339Z,79.70
2018-07-31T03:35:07.220Z,80.00
2018-07-31T03:37:35.644Z,80.40
2018-07-31T03:40:04.012Z,80.60
2018-07-31T03:42:32.440Z,80.70
2018-07-31T03:45:01.112Z,81.10
2018-07-31T03:47:29.416Z,81.30
2018-07-31T03:49:57.948Z,81.60
2018-07-31T03:52:26.548Z,81.70
2018-07-31T03:54:59.534Z,81.90
2018-07-31T03:57:28.045Z,82.00
2018-07-31T04:02:24.629Z,82.20
2018-07-31T04:04:53.149Z,82.10
2018-07-31T04:07:21.556Z,81.90
2018-07-31T04:09:49.895Z,81.80
2018-07-31T04:12:18.409Z,82.10
2018-07-31T04:14:46.964Z,82.40
2018-07-31T04:17:15.473Z,82.50
2018-07-31T04:19:43.845Z,82.40
2018-07-31T04:24:41.666Z,82.70
2018-07-31T04:29:39.208Z,82.50
2018-07-31T04:32:07.580Z,82.50
2018-07-31T04:37:14.511Z,83.60
2018-07-31T04:39:42.917Z,82.90
2018-07-31T04:42:11.314Z,82.30
2018-07-31T04:44:41.672Z,81.30
2018-07-31T04:47:10.052Z,78.90
2018-07-31T04:49:38.452Z,76.40
2018-07-31T04:52:07.031Z,73.60
2018-07-31T04:54:35.460Z,70.70
2018-07-31T04:57:03.861Z,67.60
2018-07-31T04:59:32.248Z,64.80
2018-07-31T05:04:28.820Z,60.00
2018-07-31T05:06:58.278Z,58.20
2018-07-31T05:09:26.683Z,56.50
2018-07-31T05:11:55.284Z,54.50
2018-07-31T05:14:23.656Z,52.80
2018-07-31T05:16:51.930Z,50.90
2018-07-31T05:19:20.167Z,49.10
2018-07-31T05:24:16.562Z,45.80
2018-07-31T05:29:13.863Z,43.30
2018-07-31T05:34:10.476Z,40.70
2018-07-31T05:36:38.946Z,40.00
2018-07-31T05:39:09.208Z,38.90
2018-07-31T05:44:08.058Z,37.10
2018-07-31T05:46:36.432Z,36.40
2018-07-31T05:49:04.961Z,35.40
2018-07-31T05:51:33.902Z,34.80
2018-07-31T05:54:02.558Z,34.20
2018-07-31T05:56:30.882Z,33.40
2018-07-31T05:58:59.180Z,32.20
2018-07-31T06:01:27.675Z,32.10
2018-07-31T06:03:56.807Z,31.60
2018-07-31T06:06:25.089Z,31.00
2018-07-31T06:08:53.604Z,30.30
2018-07-31T06:11:22.394Z,29.80
2018-07-31T06:13:50.880Z,29.40
2018-07-31T06:16:19.396Z,29.10
2018-07-31T06:21:15.751Z,28.70
2018-07-31T06:23:43.897Z,28.40
2018-07-31T06:26:12.299Z,28.00
2018-07-31T06:28:42.102Z,27.70
2018-07-31T06:31:10.723Z,27.20
2018-07-31T06:33:39.186Z,26.90
2018-07-31T06:36:10.780Z,27.00
2018-07-31T06:41:07.501Z,26.90
2018-07-31T06:43:35.948Z,26.80
2018-07-31T06:46:06.430Z,26.80
2018-07-31T06:48:34.524Z,26.40
2018-07-31T06:53:31.223Z,26.00
2018-07-31T06:58:28.022Z,25.20
2018-07-31T07:05:52.495Z,24.60
2018-07-31T07:08:21.131Z,24.20
2018-07-31T07:10:49.487Z,24.30
2018-07-31T07:13:17.923Z,23.50
2018-07-31T07:15:47.679Z,23.40
2018-07-31T07:18:15.920Z,23.10
2018-07-31T07:20:44.350Z,22.80
2018-07-31T07:23:12.616Z,22.60
2018-07-31T07:25:40.723Z,22.50
2018-07-31T07:30:37.429Z,22.10
2018-07-31T07:33:06.028Z,21.70
2018-07-31T07:38:02.611Z,22.00
2018-07-31T07:47:55.302Z,22.10
2018-07-31T07:50:23.928Z,22.00
2018-07-31T07:52:52.627Z,21.70
2018-07-31T07:55:21.115Z,21.70
2018-07-31T08:00:18.211Z,21.80
2018-07-31T08:02:46.404Z,21.50
2018-07-31T08:05:14.834Z,21.40
2018-07-31T08:07:43.221Z,21.70
2018-07-31T08:10:12.542Z,21.50
2018-07-31T08:12:40.961Z,21.60
2018-07-31T08:15:09.466Z,21.60
2018-07-31T08:17:37.919Z,21.50
2018-07-31T08:20:06.787Z,21.50
2018-07-31T08:22:35.453Z,21.70
2018-07-31T08:25:04.129Z,22.10
2018-07-31T08:27:32.740Z,22.40
2018-07-31T08:30:01.251Z,22.50
2018-07-31T08:32:33.301Z,22.90
2018-07-31T08:35:01.857Z,23.20
2018-07-31T08:37:30.461Z,23.40
2018-07-31T08:39:58.760Z,24.10
2018-07-31T08:44:55.354Z,26.10
2018-07-31T08:47:23.754Z,27.30
2018-07-31T08:49:52.133Z,27.90
2018-07-31T08:52:20.515Z,28.30
2018-07-31T08:54:48.838Z,28.90
2018-07-31T08:59:45.535Z,29.90
2018-07-31T09:04:47.084Z,31.40
2018-07-31T09:07:15.779Z,31.70
2018-07-31T09:09:44.850Z,32.10
2018-07-31T09:14:41.578Z,32.60
2018-07-31T09:17:10.603Z,32.20
2018-07-31T09:19:39.099Z,32.30
2018-07-31T09:22:07.895Z,32.10
2018-07-31T09:24:36.651Z,32.20
2018-07-31T09:27:05.114Z,32.30
2018-07-31T09:29:34.010Z,32.70
2018-07-31T09:34:34.929Z,32.30
2018-07-31T09:37:03.560Z,31.60
2018-07-31T09:39:32.127Z,31.80
2018-07-31T09:42:00.922Z,32.10
2018-07-31T09:44:30.109Z,31.90
2018-07-31T09:46:58.838Z,31.20
2018-07-31T09:49:27.131Z,31.20
2018-07-31T09:51:55.962Z,31.50
2018-07-31T09:54:24.434Z,31.60
2018-07-31T09:56:53.879Z,31.00
2018-07-31T09:59:22.592Z,31.90
2018-07-31T10:01:51.219Z,30.80
2018-07-31T10:04:20.550Z,30.50
2018-07-31T10:06:49.634Z,30.60
2018-07-31T10:09:18.365Z,30.20
2018-07-31T10:11:46.922Z,30.00
2018-07-31T10:14:15.764Z,29.90
2018-07-31T10:16:44.321Z,29.60
2018-07-31T10:19:12.771Z,29.70
2018-07-31T10:21:41.239Z,30.00
2018-07-31T10:26:37.522Z,30.00
2018-07-31T10:29:05.926Z,28.60
2018-07-31T10:31:34.413Z,28.50
2018-07-31T10:34:02.944Z,29.60
2018-07-31T10:36:31.434Z,29.90
2018-07-31T10:38:59.955Z,31.20
2018-07-31T10:41:29.047Z,31.10
2018-07-31T10:46:25.668Z,31.40
2018-07-31T10:48:54.064Z,31.80
2018-07-31T10:51:22.565Z,31.90
2018-07-31T10:53:50.956Z,31.80
2018-07-31T11:01:16.055Z,31.00
2018-07-31T11:03:44.459Z,31.20
2018-07-31T11:06:13.075Z,30.70
2018-07-31T11:08:41.775Z,30.30
2018-07-31T11:11:10.260Z,31.00
2018-07-31T11:13:38.570Z,30.90
2018-07-31T11:16:06.967Z,31.10
2018-07-31T11:18:35.273Z,30.90
2018-07-31T11:21:04.279Z,31.10
2018-07-31T11:23:32.677Z,31.10
2018-07-31T11:26:01.093Z,31.10
2018-07-31T11:28:29.662Z,31.40
2018-07-31T11:30:59.010Z,31.40
2018-07-31T11:33:27.322Z,31.60
2018-07-31T11:35:56.003Z,31.40
2018-07-31T11:38:24.643Z,31.80
2018-07-31T11:40:53.200Z,32.40
2018-07-31T11:45:49.813Z,35.40
2018-07-31T11:48:18.291Z,36.50
2018-07-31T11:50:46.688Z,37.20
2018-07-31T11:55:43.497Z,38.40
2018-07-31T12:00:40.316Z,39.00
2018-07-31T12:03:08.587Z,39.60
2018-07-31T12:05:36.999Z,40.30
2018-07-31T12:10:33.719Z,40.40
2018-07-31T12:13:02.923Z,40.30
2018-07-31T12:15:31.336Z,40.30
2018-07-31T12:18:00.722Z,40.50
2018-07-31T12:20:29.349Z,40.60
2018-07-31T12:22:57.841Z,41.00
2018-07-31T12:25:26.339Z,41.30
2018-07-31T12:30:23.101Z,42.00
2018-07-31T12:32:51.506Z,41.80
2018-07-31T12:35:20.064Z,41.80
2018-07-31T12:37:49.324Z,42.00
2018-07-31T12:40:17.760Z,42.30
2018-07-31T12:42:45.934Z,42.80
2018-07-31T12:45:14.278Z,43.00
2018-07-31T12:47:42.549Z,42.80
2018-07-31T12:52:39.149Z,43.20
2018-07-31T13:00:04.281Z,43.10
2018-07-31T13:02:32.758Z,42.80
2018-07-31T13:07:29.136Z,42.50
2018-07-31T13:12:25.942Z,42.20
2018-07-31T13:17:22.545Z,42.90
2018-07-31T13:19:50.829Z,42.40
2018-07-31T13:24:47.539Z,41.80
2018-07-31T13:27:15.973Z,42.00
2018-07-31T13:29:44.762Z,41.70
2018-07-31T13:32:13.257Z,41.80
2018-07-31T13:34:41.660Z,42.30
2018-07-31T13:37:10.260Z,43.30
2018-07-31T13:39:38.663Z,43.50
2018-07-31T13:42:07.234Z,43.00
2018-07-31T13:44:35.632Z,43.30
2018-07-31T13:52:00.678Z,44.80
2018-07-31T13:54:29.205Z,44.60
2018-07-31T13:56:57.556Z,44.10
2018-07-31T13:59:25.746Z,44.50
2018-07-31T14:01:54.048Z,44.70
2018-07-31T14:04:22.568Z,44.80
2018-07-31T14:06:50.830Z,44.90
2018-07-31T14:11:47.528Z,45.40
2018-07-31T14:16:44.353Z,45.30
2018-07-31T14:19:12.632Z,45.00
2018-07-31T14:21:41.024Z,44.60
2018-07-31T14:31:33.929Z,43.20
2018-07-31T14:34:02.323Z,42.50
2018-07-31T14:36:30.513Z,42.80
2018-07-31T14:38:58.797Z,43.10
2018-07-31T14:51:19.368Z,42.40
2018-07-31T14:53:47.780Z,43.00
2018-07-31T14:56:16.077Z,42.20
2018-07-31T14:58:44.554Z,41.60
2018-07-31T15:01:12.982Z,41.60
2018-07-31T15:03:41.368Z,40.60
2018-07-31T15:08:38.664Z,39.80
2018-07-31T15:11:08.336Z,39.50
2018-07-31T15:16:04.472Z,38.70
2018-07-31T15:18:32.903Z,38.00
2018-07-31T15:21:01.380Z,38.20
2018-07-31T15:25:58.159Z,36.80
2018-07-31T15:28:26.486Z,35.90
2018-07-31T15:43:19.647Z,34.70
2018-07-31T15:45:47.881Z,34.60
2018-07-31T15:48:16.086Z,34.10
2018-07-31T15:50:44.350Z,34.10
2018-07-31T15:53:12.648Z,34.80
2018-07-31T15:55:40.944Z,34.70
2018-07-31T15:58:09.561Z,34.80
2018-07-31T16:00:38.038Z,34.60
2018-07-31T16:08:03.019Z,34.70
2018-07-31T16:10:31.746Z,34.10
2018-07-31T16:15:28.343Z,34.20
2018-07-31T16:22:53.405Z,35.50
2018-07-31T16:25:21.509Z,35.60
2018-07-31T16:27:49.940Z,35.40
2018-07-31T16:32:46.535Z,35.10
2018-07-31T16:35:15.004Z,35.70
2018-07-31T16:37:43.571Z,35.70
2018-07-31T16:40:12.666Z,35.80
2018-07-31T16:42:41.051Z,36.00
2018-07-31T16:47:38.243Z,35.60
2018-07-31T16:52:35.981Z,36.20
2018-07-31T16:55:04.394Z,36.00
2018-07-31T16:57:32.752Z,35.80
2018-07-31T17:00:00.969Z,36.30
2018-07-31T17:04:57.666Z,36.40
2018-07-31T17:09:54.367Z,36.70
2018-07-31T17:12:22.723Z,37.10
2018-07-31T17:14:56.972Z,37.40
2018-07-31T17:17:26.127Z,37.70
2018-07-31T17:19:54.588Z,37.50
2018-07-31T17:22:22.926Z,37.80
2018-07-31T17:24:51.443Z,38.30
2018-07-31T17:27:19.691Z,38.50
2018-07-31T17:29:48.204Z,38.90
2018-07-31T17:32:16.974Z,38.70
2018-07-31T17:34:46.859Z,38.70
2018-07-31T17:37:15.629Z,39.10
2018-07-31T17:39:44.883Z,39.90
2018-07-31T17:42:17.089Z,39.40
2018-07-31T17:44:45.593Z,39.60
2018-07-31T17:47:14.007Z,39.90
2018-07-31T17:49:42.279Z,40.20
2018-07-31T17:52:10.329Z,40.30
2018-07-31T17:54:39.045Z,40.40
2018-07-31T17:57:07.562Z,40.60
2018-07-31T18:02:07.042Z,42.40
2018-07-31T18:04:35.542Z,43.50
2018-07-31T18:07:04.147Z,44.10
2018-07-31T18:09:32.735Z,44.50
2018-07-31T18:12:00.989Z,45.00
2018-07-31T18:14:29.776Z,45.70
2018-07-31T18:16:58.726Z,46.30
2018-07-31T18:19:27.346Z,46.60
2018-07-31T18:21:57.570Z,46.90
2018-07-31T18:24:26.324Z,47.60
2018-07-31T18:26:54.811Z,48.10
2018-07-31T18:29:30.508Z,48.50
2018-07-31T18:31:59.306Z,48.70
2018-07-31T18:34:27.873Z,49.10
2018-07-31T18:36:57.217Z,49.30
2018-07-31T18:39:26.528Z,49.70
2018-07-31T18:41:55.039Z,49.90
2018-07-31T18:44:25.329Z,50.20
2018-07-31T18:46:53.766Z,50.40
2018-07-31T18:49:26.082Z,50.90
2018-07-31T18:51:54.948Z,50.60
2018-07-31T18:54:23.533Z,50.80
2018-07-31T18:56:52.079Z,50.90
2018-07-31T18:59:24.363Z,51.00
2018-07-31T19:01:52.890Z,51.30
2018-07-31T19:04:22.326Z,51.40
2018-07-31T19:06:50.935Z,51.70
2018-07-31T19:09:23.267Z,51.80
2018-07-31T19:11:52.677Z,52.00
2018-07-31T19:14:21.197Z,52.30
2018-07-31T19:16:49.683Z,53.30
2018-07-31T19:19:18.432Z,52.80
2018-07-31T19:21:47.824Z,53.00
2018-07-31T19:26:44.436Z,53.50
2018-07-31T19:29:12.998Z,53.80
2018-07-31T19:31:48.829Z,54.30
2018-07-31T19:34:17.299Z,54.40
2018-07-31T19:36:45.907Z,55.20
2018-07-31T19:39:14.907Z,55.40
2018-07-31T19:44:12.838Z,55.70
2018-07-31T19:46:42.055Z,56.00
2018-07-31T19:49:13.888Z,56.00
2018-07-31T19:51:42.738Z,56.00
2018-07-31T19:54:11.045Z,56.40
2018-07-31T19:56:39.340Z,56.60
2018-07-31T19:59:07.947Z,56.90
2018-07-31T20:01:36.465Z,56.70
2018-07-31T20:04:05.076Z,56.90
2018-07-31T20:06:33.430Z,57.50
2018-07-31T20:11:35.965Z,58.30
2018-07-31T20:16:33.633Z,59.00
2018-07-31T20:19:02.912Z,59.40
2018-07-31T20:21:32.215Z,59.60
2018-07-31T20:26:29.251Z,59.70
2018-07-31T20:29:00.276Z,59.80
2018-07-31T20:31:29.001Z,59.90
2018-07-31T20:33:57.492Z,60.50
2018-07-31T20:36:26.148Z,60.60
2018-07-31T20:38:54.946Z,61.00
2018-07-31T20:41:23.690Z,61.10
2018-07-31T20:43:52.131Z,61.60
2018-07-31T20:46:21.745Z,61.90
2018-07-31T20:51:18.441Z,63.10
2018-07-31T20:53:49.814Z,63.80
2018-07-31T20:58:46.410Z,64.50
2018-07-31T21:01:15.328Z,64.70
2018-07-31T21:03:43.839Z,65.10
2018-07-31T21:06:12.354Z,65.30
2018-07-31T21:08:41.035Z,65.70
2018-07-31T21:11:09.620Z,65.90
2018-07-31T21:13:38.145Z,66.30
2018-07-31T21:16:06.643Z,66.70
2018-07-31T21:18:41.012Z,66.90
2018-07-31T21:21:09.474Z,67.30
2018-07-31T21:23:37.883Z,67.50
2018-07-31T21:26:06.804Z,67.50
2018-07-31T21:28:39.127Z,67.80
2018-07-31T21:31:07.463Z,68.50
2018-07-31T21:33:35.899Z,69.00
2018-07-31T21:36:05.133Z,69.60
2018-07-31T21:41:02.208Z,70.30
2018-07-31T21:43:31.531Z,70.50
2018-07-31T21:46:00.226Z,70.70
2018-07-31T21:48:29.629Z,70.40
2018-07-31T21:50:57.957Z,70.60
2018-07-31T21:53:26.364Z,70.70
2018-07-31T21:55:54.837Z,70.80
2018-07-31T22:03:24.932Z,71.40
2018-07-31T22:08:21.423Z,70.90
2018-07-31T22:10:50.273Z,71.20
2018-07-31T22:13:18.858Z,71.50
2018-07-31T22:15:47.250Z,72.00
2018-07-31T22:18:15.620Z,72.10
2018-07-31T22:20:44.333Z,72.60
2018-07-31T22:23:12.628Z,72.90
2018-07-31T22:25:40.931Z,72.90
2018-07-31T22:28:09.247Z,70.70
2018-07-31T22:33:05.914Z,59.50
2018-07-31T22:35:34.343Z,56.90
2018-07-31T22:42:59.033Z,53.20
2018-07-31T22:45:27.437Z,53.00
2018-07-31T22:47:55.670Z,54.40
2018-07-31T22:50:25.473Z,55.80
2018-07-31T22:52:53.950Z,57.00
2018-07-31T22:55:22.343Z,57.10
2018-07-31T22:57:50.914Z,56.50
2018-07-31T23:00:22.953Z,57.90
2018-07-31T23:02:51.577Z,58.80
2018-07-31T23:05:20.142Z,59.60
2018-07-31T23:07:50.710Z,60.30
2018-07-31T23:10:19.980Z,60.50
2018-07-31T23:12:49.026Z,61.00
2018-07-31T23:15:17.422Z,61.60
2018-07-31T23:17:46.135Z,62.00
2018-07-31T23:22:46.111Z,63.30
2018-07-31T23:25:14.827Z,63.50
2018-07-31T23:30:11.382Z,64.20
2018-07-31T23:32:40.252Z,64.20
2018-07-31T23:35:08.899Z,64.60
2018-07-31T23:37:37.333Z,65.20
2018-07-31T23:42:39.670Z,66.40
2018-07-31T23:45:08.158Z,66.70
2018-07-31T23:47:36.756Z,66.90
2018-07-31T23:50:05.268Z,67.10
2018-07-31T23:52:37.335Z,67.50
2018-07-31T23:55:05.821Z,67.80
2018-07-31T23:57:34.160Z,68.20
